createdAt,value
2022-10-07T00:01:12.653Z,14.65
2022-10-07T00:03:41.886Z,10.32
2022-10-07T00:06:13.803Z,13.30
2022-10-07T00:08:43.925Z,15.10
2022-10-07T00:11:15.129Z,13.57
2022-10-07T00:13:45.730Z,10.95
2022-10-07T00:16:16.520Z,10.27
2022-10-07T00:18:45.984Z,9.52
2022-10-07T00:21:17.415Z,13.70
2022-10-07T00:23:47.419Z,13.52
2022-10-07T00:26:20.067Z,15.98
2022-10-07T00:28:48.988Z,10.18
2022-10-07T00:31:19.529Z,11.95
2022-10-07T00:33:48.627Z,21.17
2022-10-07T00:36:19.831Z,9.88
2022-10-07T00:38:52.113Z,11.07
2022-10-07T00:41:23.916Z,9.70
2022-10-07T00:43:52.237Z,12.45
2022-10-07T00:46:29.927Z,8.30
2022-10-07T00:49:01.959Z,10.27
2022-10-07T00:51:31.363Z,15.48
2022-10-07T00:53:59.925Z,9.88
2022-10-07T00:56:29.810Z,7.63
2022-10-07T00:59:00.649Z,15.18
2022-10-07T01:01:28.761Z,12.80
2022-10-07T01:03:56.819Z,13.00
2022-10-07T01:06:25.496Z,19.58
2022-10-07T01:08:55.742Z,8.20
2022-10-07T01:11:41.824Z,9.77
2022-10-07T01:14:16.142Z,12.43
2022-10-07T01:16:54.178Z,17.83
2022-10-07T01:19:49.630Z,14.77
2022-10-07T01:22:34.269Z,11.37
2022-10-07T01:25:20.951Z,12.25
2022-10-07T01:27:56.233Z,25.50
2022-10-07T01:30:24.680Z,11.20
2022-10-07T01:32:59.842Z,16.05
2022-10-07T01:35:35.602Z,10.02
2022-10-07T01:38:08.242Z,10.85
2022-10-07T01:40:41.364Z,10.98
2022-10-07T01:43:11.486Z,13.00
2022-10-07T01:45:43.091Z,13.38
2022-10-07T01:48:11.377Z,13.15
2022-10-07T01:50:41.132Z,13.73
2022-10-07T01:53:29.022Z,13.05
2022-10-07T01:56:13.029Z,13.32
2022-10-07T01:58:57.701Z,14.23
2022-10-07T02:01:38.541Z,15.02
2022-10-07T02:04:25.904Z,11.32
2022-10-07T02:07:02.991Z,13.32
2022-10-07T02:09:37.550Z,13.95
2022-10-07T02:12:10.913Z,19.87
2022-10-07T02:14:46.674Z,14.80
2022-10-07T02:17:18.959Z,13.18
2022-10-07T02:19:53.880Z,13.27
2022-10-07T02:22:26.641Z,12.18
2022-10-07T02:24:59.642Z,13.35
2022-10-07T02:27:33.485Z,15.75
2022-10-07T02:30:09.491Z,9.13
2022-10-07T02:32:41.531Z,10.88
2022-10-07T02:35:17.530Z,13.15
2022-10-07T02:37:51.014Z,11.32
2022-10-07T02:40:19.575Z,12.05
2022-10-07T02:42:57.017Z,12.25
2022-10-07T02:45:33.861Z,11.45
2022-10-07T02:48:05.910Z,10.40
2022-10-07T02:50:40.704Z,8.70
2022-10-07T02:53:10.712Z,11.23
2022-10-07T02:55:39.268Z,14.38
2022-10-07T02:58:10.350Z,6.93
2022-10-07T03:00:44.557Z,10.27
2022-10-07T03:03:13.052Z,13.57
2022-10-07T03:05:42.278Z,14.88
2022-10-07T03:08:12.639Z,11.18
2022-10-07T03:10:40.722Z,12.90
2022-10-07T03:13:08.811Z,9.20
2022-10-07T03:15:42.095Z,14.45
2022-10-07T03:18:26.953Z,11.57
2022-10-07T03:20:56.329Z,12.77
2022-10-07T03:23:25.612Z,9.63
2022-10-07T03:25:54.778Z,8.60
2022-10-07T03:28:24.697Z,8.55
2022-10-07T03:30:54.232Z,10.73
2022-10-07T03:33:26.462Z,10.23
2022-10-07T03:35:55.022Z,12.40
2022-10-07T03:38:23.827Z,7.63
2022-10-07T03:40:52.146Z,8.73
2022-10-07T03:43:20.588Z,9.18
2022-10-07T03:45:52.272Z,12.57
2022-10-07T03:48:21.071Z,7.68
2022-10-07T03:50:57.075Z,14.35
2022-10-07T03:53:26.242Z,9.55
2022-10-07T03:55:54.564Z,7.32
2022-10-07T03:58:23.361Z,6.63
2022-10-07T04:00:52.283Z,13.82
2022-10-07T04:03:20.415Z,16.40
2022-10-07T04:06:01.047Z,18.45
2022-10-07T04:08:31.838Z,18.13
2022-10-07T04:11:02.250Z,13.38
2022-10-07T04:13:30.814Z,10.45
2022-10-07T04:15:59.540Z,9.13
2022-10-07T04:18:28.063Z,14.05
2022-10-07T04:21:00.699Z,13.18
2022-10-07T04:23:29.261Z,10.57
2022-10-07T04:25:58.064Z,13.20
2022-10-07T04:28:27.183Z,9.70
2022-10-07T04:30:56.029Z,13.13
2022-10-07T04:33:25.910Z,16.58
2022-10-07T04:35:53.995Z,21.08
2022-10-07T04:38:28.128Z,7.45
2022-10-07T04:40:57.119Z,13.97
2022-10-07T04:43:24.717Z,16.08
2022-10-07T04:45:55.320Z,13.90
2022-10-07T04:48:26.282Z,17.67
2022-10-07T04:50:55.443Z,13.65
2022-10-07T04:53:24.966Z,13.20
2022-10-07T04:55:53.408Z,14.52
2022-10-07T04:58:22.335Z,19.08
2022-10-07T05:00:52.408Z,12.52
2022-10-07T05:03:23.176Z,14.73
2022-10-07T05:05:52.835Z,19.23
2022-10-07T05:08:23.299Z,18.33
2022-10-07T05:10:57.519Z,12.25
2022-10-07T05:13:27.176Z,17.58
2022-10-07T05:15:56.956Z,9.45
2022-10-07T05:18:27.509Z,19.67
2022-10-07T05:20:56.190Z,12.82
2022-10-07T05:23:28.616Z,16.00
2022-10-07T05:26:05.019Z,14.27
2022-10-07T05:28:33.202Z,15.13
2022-10-07T05:31:08.003Z,14.82
2022-10-07T05:33:36.884Z,14.45
2022-10-07T05:36:05.682Z,18.50
2022-10-07T05:38:34.483Z,12.73
2022-10-07T05:41:06.056Z,12.23
2022-10-07T05:43:38.688Z,19.42
2022-10-07T05:46:08.735Z,19.33
2022-10-07T05:48:39.602Z,13.15
2022-10-07T05:51:09.653Z,17.08
2022-10-07T05:53:41.356Z,14.77
2022-10-07T05:56:12.897Z,21.48
2022-10-07T05:58:40.988Z,11.93
2022-10-07T06:01:16.022Z,15.38
2022-10-07T06:03:44.715Z,17.50
2022-10-07T06:06:12.671Z,8.55
2022-10-07T06:08:41.234Z,12.00
2022-10-07T06:11:30.917Z,11.20
2022-10-07T06:13:59.837Z,14.52
2022-10-07T06:16:28.297Z,15.55
2022-10-07T06:18:57.083Z,13.57
2022-10-07T06:21:28.599Z,11.23
2022-10-07T06:23:58.761Z,11.32
2022-10-07T06:26:29.009Z,16.02
2022-10-07T06:28:56.970Z,13.32
2022-10-07T06:31:25.881Z,15.50
2022-10-07T06:33:55.652Z,16.98
2022-10-07T06:36:24.224Z,15.93
2022-10-07T06:38:53.736Z,14.35
2022-10-07T06:41:23.145Z,14.95
2022-10-07T06:43:57.102Z,18.30
2022-10-07T06:46:27.179Z,12.55
2022-10-07T06:48:55.424Z,16.40
2022-10-07T06:51:24.224Z,16.00
2022-10-07T06:53:54.116Z,16.38
2022-10-07T06:56:23.277Z,11.77
2022-10-07T06:58:54.376Z,10.68
2022-10-07T07:01:23.550Z,16.48
2022-10-07T07:03:51.601Z,14.90
2022-10-07T07:06:19.559Z,12.00
2022-10-07T07:08:50.419Z,17.33
2022-10-07T07:11:38.400Z,15.10
2022-10-07T07:14:09.396Z,17.13
2022-10-07T07:16:37.489Z,11.60
2022-10-07T07:19:09.064Z,14.40
2022-10-07T07:21:38.529Z,18.15
2022-10-07T07:24:07.812Z,14.57
2022-10-07T07:26:36.610Z,15.35
2022-10-07T07:29:08.174Z,12.88
2022-10-07T07:31:40.581Z,74.53
2022-10-07T07:34:13.222Z,42.78
2022-10-07T07:36:46.015Z,108.40
2022-10-07T07:39:15.632Z,75.13
2022-10-07T07:41:46.945Z,44.65
2022-10-07T07:44:18.388Z,48.75
2022-10-07T07:46:49.236Z,28.02
2022-10-07T07:49:17.914Z,58.05
2022-10-07T07:51:48.285Z,109.05
2022-10-07T07:54:18.156Z,102.85
2022-10-07T07:56:47.338Z,42.30
2022-10-07T07:59:17.799Z,26.08
2022-10-07T08:01:46.613Z,67.70
2022-10-07T08:04:17.227Z,39.33
2022-10-07T08:06:47.338Z,30.27
2022-10-07T08:09:16.757Z,15.70
2022-10-07T08:11:46.248Z,16.50
2022-10-07T08:14:18.226Z,20.40
2022-10-07T08:16:47.720Z,37.90
2022-10-07T08:19:16.034Z,24.83
2022-10-07T08:21:45.211Z,20.45
2022-10-07T08:24:15.311Z,11.68
2022-10-07T08:26:44.483Z,20.88
2022-10-07T08:29:13.871Z,12.82
2022-10-07T08:31:45.214Z,16.45
2022-10-07T08:34:14.469Z,16.27
2022-10-07T08:36:47.964Z,14.07
2022-10-07T08:39:17.595Z,20.42
2022-10-07T08:42:02.835Z,16.15
2022-10-07T08:44:34.548Z,14.98
2022-10-07T08:47:17.000Z,26.63
2022-10-07T08:49:56.025Z,19.02
2022-10-07T08:52:34.163Z,16.77
2022-10-07T08:55:03.460Z,22.55
2022-10-07T08:57:52.436Z,14.38
2022-10-07T09:00:25.048Z,14.02
2022-10-07T09:03:08.731Z,38.47
2022-10-07T09:05:43.670Z,9.45
2022-10-07T09:08:21.455Z,21.10
2022-10-07T09:10:53.891Z,21.23
2022-10-07T09:13:26.775Z,45.67
2022-10-07T09:16:01.254Z,50.58
2022-10-07T09:18:37.906Z,15.93
2022-10-07T09:21:13.580Z,15.25
2022-10-07T09:23:43.604Z,14.90
2022-10-07T09:26:14.287Z,16.40
2022-10-07T09:28:43.596Z,14.32
2022-10-07T09:31:16.631Z,16.85
2022-10-07T09:33:50.537Z,11.10
2022-10-07T09:36:20.054Z,15.35
2022-10-07T09:38:52.705Z,17.80
2022-10-07T09:41:29.044Z,16.50
2022-10-07T09:44:06.625Z,17.60
2022-10-07T09:46:48.324Z,10.05
2022-10-07T09:49:43.099Z,12.30
2022-10-07T09:52:20.063Z,15.27
2022-10-07T09:54:50.903Z,13.02
2022-10-07T09:57:32.700Z,11.85
2022-10-07T10:00:25.458Z,13.65
2022-10-07T10:03:01.218Z,8.52
2022-10-07T10:05:37.727Z,18.02
2022-10-07T10:08:09.527Z,11.63
2022-10-07T10:10:38.805Z,13.98
2022-10-07T10:13:08.432Z,18.85
2022-10-07T10:15:42.845Z,14.80
2022-10-07T10:18:31.614Z,16.70
2022-10-07T10:21:20.234Z,15.82
2022-10-07T10:23:51.294Z,10.38
2022-10-07T10:26:34.595Z,16.15
2022-10-07T10:29:19.749Z,23.45
2022-10-07T10:32:16.248Z,13.57
2022-10-07T10:34:54.546Z,10.48
2022-10-07T10:37:31.613Z,14.02
2022-10-07T10:40:09.655Z,12.25
2022-10-07T10:42:45.794Z,18.50
2022-10-07T10:45:27.059Z,7.72
2022-10-07T10:48:11.743Z,12.63
2022-10-07T10:50:52.866Z,9.95
2022-10-07T10:53:35.871Z,12.35
2022-10-07T10:56:16.749Z,6.38
2022-10-07T10:59:00.092Z,11.93
2022-10-07T11:01:37.128Z,10.45
2022-10-07T11:04:22.273Z,14.07
2022-10-07T11:06:56.731Z,11.27
2022-10-07T11:09:35.475Z,14.73
2022-10-07T11:12:07.797Z,11.25
2022-10-07T11:14:49.281Z,9.35
2022-10-07T11:17:20.005Z,10.32
2022-10-07T11:19:58.893Z,12.50
2022-10-07T11:22:35.744Z,8.07
2022-10-07T11:25:16.777Z,7.97
2022-10-07T11:27:48.579Z,13.80
2022-10-07T11:30:20.885Z,7.63
2022-10-07T11:32:56.666Z,7.90
2022-10-07T11:35:32.029Z,16.13
2022-10-07T11:40:40.206Z,12.55
2022-10-07T11:43:15.822Z,8.88
2022-10-07T11:45:52.910Z,11.77
2022-10-07T11:48:33.153Z,14.25
2022-10-07T11:51:05.931Z,13.57
2022-10-07T11:53:39.517Z,14.75
2022-10-07T11:56:24.005Z,17.33
2022-10-07T11:59:00.987Z,11.00
2022-10-07T12:01:48.913Z,14.30
2022-10-07T12:04:27.622Z,15.68
2022-10-07T12:07:34.224Z,18.80
2022-10-07T12:10:36.630Z,10.65
2022-10-07T12:13:41.892Z,12.45
2022-10-07T12:16:55.211Z,16.63
2022-10-07T12:19:24.404Z,9.95
2022-10-07T12:22:19.493Z,11.88
2022-10-07T12:25:11.559Z,15.00
2022-10-07T12:27:48.024Z,13.60
2022-10-07T12:30:42.987Z,13.40
2022-10-07T12:33:27.624Z,16.50
2022-10-07T12:35:57.649Z,16.35
2022-10-07T12:38:29.362Z,12.77
2022-10-07T12:41:32.368Z,17.05
2022-10-07T12:44:15.771Z,12.80
2022-10-07T12:46:48.280Z,9.80
2022-10-07T12:49:23.319Z,13.38
2022-10-07T12:51:55.871Z,14.00
2022-10-07T12:54:32.599Z,18.27
2022-10-07T12:57:04.496Z,12.30
2022-10-07T12:59:49.992Z,14.27
2022-10-07T13:02:51.770Z,11.93
2022-10-07T13:06:14.334Z,14.80
2022-10-07T13:09:28.501Z,13.45
2022-10-07T13:12:13.388Z,14.68
2022-10-07T13:14:54.195Z,12.00
2022-10-07T13:17:37.048Z,16.75
2022-10-07T13:20:18.786Z,16.45
2022-10-07T13:22:49.873Z,12.90
2022-10-07T13:25:22.393Z,15.95
2022-10-07T13:27:55.278Z,14.25
2022-10-07T13:30:41.650Z,12.65
2022-10-07T13:33:32.844Z,20.00
2022-10-07T13:36:13.279Z,8.52
2022-10-07T13:38:42.084Z,11.10
2022-10-07T13:41:26.973Z,14.20
2022-10-07T13:44:00.218Z,12.80
2022-10-07T13:46:33.326Z,12.30
2022-10-07T13:49:04.307Z,15.07
2022-10-07T13:51:37.212Z,7.97
2022-10-07T13:54:08.169Z,10.20
2022-10-07T13:56:42.599Z,13.20
2022-10-07T13:59:18.821Z,11.85
2022-10-07T14:01:52.830Z,9.65
2022-10-07T14:04:27.640Z,11.20
2022-10-07T14:07:00.607Z,16.30
2022-10-07T14:09:39.003Z,9.10
2022-10-07T14:12:12.841Z,9.70
2022-10-07T14:14:44.532Z,10.60
2022-10-07T14:17:24.982Z,11.43
2022-10-07T14:19:57.255Z,11.65
2022-10-07T14:22:33.483Z,14.88
2022-10-07T14:25:05.563Z,10.23
2022-10-07T14:27:55.461Z,9.88
2022-10-07T14:30:56.381Z,14.65
2022-10-07T14:34:01.476Z,13.75
2022-10-07T14:36:30.660Z,15.93
2022-10-07T14:39:00.027Z,7.80
2022-10-07T14:41:30.747Z,7.40
2022-10-07T14:44:00.641Z,13.35
2022-10-07T14:46:30.524Z,10.13
2022-10-07T14:49:02.086Z,11.40
2022-10-07T14:51:31.486Z,12.35
2022-10-07T14:54:06.196Z,11.48
2022-10-07T14:56:37.724Z,18.90
2022-10-07T14:59:08.915Z,15.95
2022-10-07T15:01:37.598Z,13.27
2022-10-07T15:04:08.317Z,16.45
2022-10-07T15:06:37.736Z,45.65
2022-10-07T15:09:06.795Z,68.55
2022-10-07T15:11:36.292Z,15.38
2022-10-07T15:14:05.211Z,80.78
2022-10-07T15:16:33.790Z,8.65
2022-10-07T15:19:03.539Z,11.65
2022-10-07T15:21:34.638Z,12.20
2022-10-07T15:24:03.540Z,11.98
2022-10-07T15:26:31.989Z,9.23
2022-10-07T15:29:02.712Z,6.85
2022-10-07T15:31:31.822Z,11.63
2022-10-07T15:34:00.588Z,7.78
2022-10-07T15:36:31.146Z,11.30
2022-10-07T15:39:02.301Z,8.90
2022-10-07T15:41:34.534Z,8.02
2022-10-07T15:44:05.951Z,9.82
2022-10-07T15:46:35.686Z,11.93
2022-10-07T15:49:05.675Z,9.93
2022-10-07T15:51:37.161Z,9.02
2022-10-07T15:54:08.376Z,7.13
2022-10-07T15:56:37.772Z,13.45
2022-10-07T15:59:06.699Z,11.85
2022-10-07T16:01:35.309Z,12.75
2022-10-07T16:04:06.131Z,11.90
2022-10-07T16:06:37.074Z,13.48
2022-10-07T16:09:08.493Z,9.73
2022-10-07T16:11:37.325Z,11.82
2022-10-07T16:14:06.129Z,10.38
2022-10-07T16:16:35.866Z,11.52
2022-10-07T16:19:05.319Z,9.40
2022-10-07T16:21:36.474Z,12.02
2022-10-07T16:24:09.890Z,16.83
2022-10-07T16:26:39.350Z,15.70
2022-10-07T16:29:28.076Z,11.65
2022-10-07T16:31:59.256Z,10.63
2022-10-07T16:34:29.274Z,12.63
2022-10-07T16:36:59.510Z,10.00
2022-10-07T16:39:29.752Z,8.85
2022-10-07T16:42:00.369Z,9.88
2022-10-07T16:44:29.894Z,7.47
2022-10-07T16:46:59.560Z,13.50
2022-10-07T16:49:30.898Z,8.90
2022-10-07T16:52:00.484Z,8.05
2022-10-07T16:54:32.435Z,8.70
2022-10-07T16:57:02.212Z,11.43
2022-10-07T16:59:31.477Z,12.48
2022-10-07T17:02:02.881Z,8.27
2022-10-07T17:04:32.216Z,10.15
2022-10-07T17:07:01.103Z,13.43
2022-10-07T17:09:31.474Z,5.43
2022-10-07T17:12:00.743Z,10.98
2022-10-07T17:14:31.826Z,11.00
2022-10-07T17:17:01.756Z,9.52
2022-10-07T17:19:38.960Z,12.63
2022-10-07T17:22:08.191Z,13.55
2022-10-07T17:24:38.328Z,11.75
2022-10-07T17:27:10.956Z,13.20
2022-10-07T17:29:39.694Z,7.35
2022-10-07T17:32:10.135Z,11.30
2022-10-07T17:34:41.971Z,15.40
2022-10-07T17:37:15.284Z,7.88
2022-10-07T17:39:45.476Z,8.05
2022-10-07T17:42:13.981Z,14.00
2022-10-07T17:44:44.105Z,8.25
2022-10-07T17:47:12.580Z,14.80
2022-10-07T17:49:41.348Z,11.00
2022-10-07T17:52:10.499Z,6.93
2022-10-07T17:54:39.939Z,9.43
2022-10-07T17:57:10.505Z,8.63
2022-10-07T17:59:40.385Z,11.48
2022-10-07T18:02:10.864Z,11.02
2022-10-07T18:04:40.221Z,10.35
2022-10-07T18:07:09.316Z,7.85
2022-10-07T18:09:39.943Z,9.18
2022-10-07T18:12:27.554Z,5.75
2022-10-07T18:15:13.043Z,15.02
2022-10-07T18:17:41.839Z,12.27
2022-10-07T18:20:15.010Z,8.93
2022-10-07T18:22:45.323Z,9.35
2022-10-07T18:25:13.675Z,7.00
2022-10-07T18:27:44.138Z,9.52
2022-10-07T18:30:13.539Z,11.80
2022-10-07T18:32:41.884Z,7.72
2022-10-07T18:35:11.380Z,10.88
2022-10-07T18:37:39.586Z,13.00
2022-10-07T18:40:09.599Z,10.60
2022-10-07T18:42:38.874Z,8.10
2022-10-07T18:45:10.425Z,20.00
2022-10-07T18:47:39.242Z,11.18
2022-10-07T18:50:08.889Z,11.13
2022-10-07T18:52:37.324Z,18.25
2022-10-07T18:55:06.719Z,13.95
2022-10-07T18:57:35.635Z,7.65
2022-10-07T19:00:04.191Z,11.02
2022-10-07T19:02:34.454Z,8.65
2022-10-07T19:05:02.774Z,14.52
2022-10-07T19:07:31.797Z,13.68
2022-10-07T19:10:00.903Z,14.25
2022-10-07T19:12:46.828Z,18.27
2022-10-07T19:17:47.536Z,28.42
2022-10-07T19:20:19.116Z,21.35
2022-10-07T19:22:48.035Z,19.08
2022-10-07T19:25:34.216Z,19.65
2022-10-07T19:28:03.452Z,16.88
2022-10-07T19:30:32.327Z,13.30
2022-10-07T19:33:02.939Z,13.68
2022-10-07T19:35:33.501Z,18.50
2022-10-07T19:38:04.828Z,9.95
2022-10-07T19:40:35.314Z,12.77
2022-10-07T19:43:06.642Z,12.45
2022-10-07T19:45:35.957Z,18.08
2022-10-07T19:48:13.121Z,15.80
2022-10-07T19:50:47.471Z,13.35
2022-10-07T19:53:17.203Z,13.55
2022-10-07T19:55:47.211Z,17.25
2022-10-07T19:58:17.442Z,22.38
2022-10-07T20:00:46.484Z,20.02
2022-10-07T20:03:17.687Z,20.65
2022-10-07T20:05:46.867Z,18.35
2022-10-07T20:08:18.559Z,22.95
2022-10-07T20:10:47.351Z,24.45
2022-10-07T20:13:18.443Z,14.13
2022-10-07T20:15:48.228Z,20.48
2022-10-07T20:18:19.666Z,14.27
2022-10-07T20:20:49.626Z,18.95
2022-10-07T20:23:18.789Z,14.55
2022-10-07T20:25:47.583Z,12.07
2022-10-07T20:28:16.606Z,16.02
2022-10-07T20:30:46.648Z,20.17
2022-10-07T20:33:15.790Z,14.52
2022-10-07T20:35:47.624Z,14.18
2022-10-07T20:38:16.530Z,9.60
2022-10-07T20:41:14.718Z,12.18
2022-10-07T20:43:43.887Z,8.27
2022-10-07T20:46:13.598Z,10.60
2022-10-07T20:48:45.619Z,10.30
2022-10-07T20:51:17.859Z,15.70
2022-10-07T20:53:50.135Z,9.52
2022-10-07T20:56:20.385Z,13.00
2022-10-07T20:58:49.442Z,12.82
2022-10-07T21:01:18.633Z,13.65
2022-10-07T21:03:47.383Z,12.15
2022-10-07T21:06:19.460Z,14.27
2022-10-07T21:08:48.581Z,13.45
2022-10-07T21:11:18.481Z,16.20
2022-10-07T21:13:47.877Z,11.38
2022-10-07T21:16:21.623Z,9.68
2022-10-07T21:18:50.884Z,10.75
2022-10-07T21:21:23.305Z,15.70
2022-10-07T21:23:53.185Z,11.75
2022-10-07T21:26:24.017Z,11.15
2022-10-07T21:28:53.176Z,12.45
2022-10-07T21:31:24.011Z,9.65
2022-10-07T21:33:54.128Z,13.48
2022-10-07T21:36:26.430Z,14.18
2022-10-07T21:39:00.008Z,9.93
2022-10-07T21:41:33.530Z,10.80
2022-10-07T21:44:03.385Z,14.48
2022-10-07T21:46:35.786Z,13.07
2022-10-07T21:49:06.382Z,13.45
2022-10-07T21:51:37.852Z,15.32
2022-10-07T21:54:07.337Z,6.72
2022-10-07T21:56:37.472Z,15.73
2022-10-07T21:59:07.106Z,9.90
2022-10-07T22:01:36.943Z,9.88
2022-10-07T22:04:07.600Z,7.85
2022-10-07T22:06:55.249Z,10.68
2022-10-07T22:09:24.633Z,14.93
2022-10-07T22:11:53.552Z,11.15
2022-10-07T22:14:24.049Z,13.30
2022-10-07T22:16:53.488Z,8.93
2022-10-07T22:19:24.120Z,15.48
2022-10-07T22:21:55.030Z,12.02
2022-10-07T22:24:24.774Z,15.50
2022-10-07T22:26:53.359Z,12.15
2022-10-07T22:29:23.979Z,16.65
2022-10-07T22:31:53.811Z,12.93
2022-10-07T22:34:43.619Z,13.13
2022-10-07T22:37:14.241Z,13.60
2022-10-07T22:39:43.503Z,13.38
2022-10-07T22:42:12.657Z,13.98
2022-10-07T22:44:42.550Z,17.45
2022-10-07T22:47:12.432Z,11.30
2022-10-07T22:49:42.232Z,12.05
2022-10-07T22:52:11.722Z,14.23
2022-10-07T22:54:43.541Z,12.18
2022-10-07T22:57:12.694Z,18.63
2022-10-07T22:59:41.867Z,9.55
2022-10-07T23:02:10.806Z,8.15
2022-10-07T23:04:40.530Z,10.77
2022-10-07T23:07:09.203Z,11.20
2022-10-07T23:09:38.846Z,13.55
2022-10-07T23:12:09.455Z,11.75
2022-10-07T23:14:38.844Z,10.63
2022-10-07T23:17:08.130Z,11.32
2022-10-07T23:19:36.822Z,10.68
2022-10-07T23:22:06.490Z,10.65
2022-10-07T23:24:35.884Z,9.75
2022-10-07T23:27:05.378Z,13.82
2022-10-07T23:29:35.382Z,12.13
2022-10-07T23:32:04.930Z,8.15
2022-10-07T23:34:34.317Z,9.18
2022-10-07T23:37:03.128Z,7.28
2022-10-07T23:39:32.158Z,17.38
2022-10-07T23:42:01.818Z,10.93
2022-10-07T23:44:31.563Z,12.27
2022-10-07T23:47:02.053Z,8.88
2022-10-07T23:49:31.916Z,15.20
2022-10-07T23:52:01.814Z,10.68
2022-10-07T23:54:30.514Z,13.27
2022-10-07T23:57:00.254Z,10.38
2022-10-07T23:59:29.684Z,17.02
